sensor_id;sensor_type;location;lat;lon;timestamp;temperature;humidity
39347;DHT22;26262;49.836;6.632;2022-08-20T00:00:56;20.00;99.90
39347;DHT22;26262;49.836;6.632;2022-08-20T00:03:27;19.80;99.90
39347;DHT22;26262;49.836;6.632;2022-08-20T00:06:12;20.00;99.90
39347;DHT22;26262;49.836;6.632;2022-08-20T00:08:38;19.90;99.90
39347;DHT22;26262;49.836;6.632;2022-08-20T00:11:06;19.70;99.90
39347;DHT22;26262;49.836;6.632;2022-08-20T00:13:39;19.80;99.90
39347;DHT22;26262;49.836;6.632;2022-08-20T00:16:06;19.90;99.90
39347;DHT22;26262;49.836;6.632;2022-08-20T00:18:32;20.10;99.90
39347;DHT22;26262;49.836;6.632;2022-08-20T00:21:02;20.00;99.90
39347;DHT22;26262;49.836;6.632;2022-08-20T00:23:28;19.90;99.90
39347;DHT22;26262;49.836;6.632;2022-08-20T00:25:54;19.70;99.90
39347;DHT22;26262;49.836;6.632;2022-08-20T00:28:20;19.40;99.90
39347;DHT22;26262;49.836;6.632;2022-08-20T00:30:46;19.40;99.90
39347;DHT22;26262;49.836;6.632;2022-08-20T00:33:19;19.50;99.90
39347;DHT22;26262;49.836;6.632;2022-08-20T00:35:53;19.40;99.90
39347;DHT22;26262;49.836;6.632;2022-08-20T00:38:21;19.30;99.90
39347;DHT22;26262;49.836;6.632;2022-08-20T00:40:52;19.40;99.90
39347;DHT22;26262;49.836;6.632;2022-08-20T00:43:26;19.40;99.90
39347;DHT22;26262;49.836;6.632;2022-08-20T00:45:52;19.60;99.90
39347;DHT22;26262;49.836;6.632;2022-08-20T00:48:24;19.70;99.90
39347;DHT22;26262;49.836;6.632;2022-08-20T00:50:50;19.50;99.90
39347;DHT22;26262;49.836;6.632;2022-08-20T00:53:19;19.50;99.90
39347;DHT22;26262;49.836;6.632;2022-08-20T00:55:46;19.50;99.90
39347;DHT22;26262;49.836;6.632;2022-08-20T00:58:12;19.50;99.90
39347;DHT22;26262;49.836;6.632;2022-08-20T01:00:42;19.60;99.90
39347;DHT22;26262;49.836;6.632;2022-08-20T01:03:11;19.70;99.90
39347;DHT22;26262;49.836;6.632;2022-08-20T01:05:43;19.60;99.90
39347;DHT22;26262;49.836;6.632;2022-08-20T01:08:09;19.60;99.90
39347;DHT22;26262;49.836;6.632;2022-08-20T01:10:37;19.60;99.90
39347;DHT22;26262;49.836;6.632;2022-08-20T01:13:07;19.50;99.90
39347;DHT22;26262;49.836;6.632;2022-08-20T01:15:39;19.30;99.90
39347;DHT22;26262;49.836;6.632;2022-08-20T01:18:07;19.20;99.90
39347;DHT22;26262;49.836;6.632;2022-08-20T01:20:50;19.20;99.90
39347;DHT22;26262;49.836;6.632;2022-08-20T01:23:33;19.30;99.90
39347;DHT22;26262;49.836;6.632;2022-08-20T01:26:03;19.20;99.90
39347;DHT22;26262;49.836;6.632;2022-08-20T01:30:59;19.20;99.90
39347;DHT22;26262;49.836;6.632;2022-08-20T01:33:27;19.30;99.90
39347;DHT22;26262;49.836;6.632;2022-08-20T01:35:53;19.40;99.90
39347;DHT22;26262;49.836;6.632;2022-08-20T01:38:18;19.50;99.90
39347;DHT22;26262;49.836;6.632;2022-08-20T01:41:09;19.50;99.90
39347;DHT22;26262;49.836;6.632;2022-08-20T01:43:37;19.50;99.90
39347;DHT22;26262;49.836;6.632;2022-08-20T01:46:04;19.50;99.90
39347;DHT22;26262;49.836;6.632;2022-08-20T01:48:30;19.40;99.90
39347;DHT22;26262;49.836;6.632;2022-08-20T01:51:15;19.20;99.90
39347;DHT22;26262;49.836;6.632;2022-08-20T01:53:46;19.20;99.90
39347;DHT22;26262;49.836;6.632;2022-08-20T01:56:15;19.10;99.90
39347;DHT22;26262;49.836;6.632;2022-08-20T01:58:44;19.00;99.90
39347;DHT22;26262;49.836;6.632;2022-08-20T02:01:27;18.90;99.90
39347;DHT22;26262;49.836;6.632;2022-08-20T02:03:54;19.00;99.90
39347;DHT22;26262;49.836;6.632;2022-08-20T02:06:21;19.00;99.90
39347;DHT22;26262;49.836;6.632;2022-08-20T02:08:51;18.90;99.90
39347;DHT22;26262;49.836;6.632;2022-08-20T02:11:17;19.00;99.90
39347;DHT22;26262;49.836;6.632;2022-08-20T02:13:43;19.00;99.90
39347;DHT22;26262;49.836;6.632;2022-08-20T02:16:09;19.00;99.90
39347;DHT22;26262;49.836;6.632;2022-08-20T02:18:34;18.90;99.90
39347;DHT22;26262;49.836;6.632;2022-08-20T02:21:01;19.00;99.90
39347;DHT22;26262;49.836;6.632;2022-08-20T02:23:27;19.10;99.90
39347;DHT22;26262;49.836;6.632;2022-08-20T02:25:53;19.20;99.90
39347;DHT22;26262;49.836;6.632;2022-08-20T02:28:19;19.10;99.90
39347;DHT22;26262;49.836;6.632;2022-08-20T02:30:48;19.20;99.90
39347;DHT22;26262;49.836;6.632;2022-08-20T02:33:16;19.20;99.90
39347;DHT22;26262;49.836;6.632;2022-08-20T02:35:45;19.30;99.90
39347;DHT22;26262;49.836;6.632;2022-08-20T02:38:12;19.20;99.90
39347;DHT22;26262;49.836;6.632;2022-08-20T02:40:38;19.40;99.90
39347;DHT22;26262;49.836;6.632;2022-08-20T02:43:04;19.40;99.90
39347;DHT22;26262;49.836;6.632;2022-08-20T02:45:32;19.50;99.90
39347;DHT22;26262;49.836;6.632;2022-08-20T02:48:02;19.40;99.90
39347;DHT22;26262;49.836;6.632;2022-08-20T02:50:28;19.30;99.90
39347;DHT22;26262;49.836;6.632;2022-08-20T02:52:54;19.30;99.90
39347;DHT22;26262;49.836;6.632;2022-08-20T02:55:21;19.30;99.90
39347;DHT22;26262;49.836;6.632;2022-08-20T02:57:47;19.20;99.90
39347;DHT22;26262;49.836;6.632;2022-08-20T03:00:16;19.10;99.90
39347;DHT22;26262;49.836;6.632;2022-08-20T03:02:43;19.30;99.90
39347;DHT22;26262;49.836;6.632;2022-08-20T03:05:10;19.30;99.90
39347;DHT22;26262;49.836;6.632;2022-08-20T03:07:45;19.20;99.90
39347;DHT22;26262;49.836;6.632;2022-08-20T03:10:12;19.10;99.90
39347;DHT22;26262;49.836;6.632;2022-08-20T03:12:38;19.10;99.90
39347;DHT22;26262;49.836;6.632;2022-08-20T03:15:05;19.10;99.90
39347;DHT22;26262;49.836;6.632;2022-08-20T03:17:31;19.10;99.90
39347;DHT22;26262;49.836;6.632;2022-08-20T03:19:57;19.00;99.90
39347;DHT22;26262;49.836;6.632;2022-08-20T03:22:22;19.00;99.90
39347;DHT22;26262;49.836;6.632;2022-08-20T03:24:48;19.10;99.90
39347;DHT22;26262;49.836;6.632;2022-08-20T03:27:13;19.00;99.90
39347;DHT22;26262;49.836;6.632;2022-08-20T03:29:39;19.10;99.90
39347;DHT22;26262;49.836;6.632;2022-08-20T03:32:04;18.80;99.90
39347;DHT22;26262;49.836;6.632;2022-08-20T03:34:30;18.80;99.90
39347;DHT22;26262;49.836;6.632;2022-08-20T03:36:55;18.70;99.90
39347;DHT22;26262;49.836;6.632;2022-08-20T03:39:21;18.80;99.90
39347;DHT22;26262;49.836;6.632;2022-08-20T03:41:46;18.90;99.90
39347;DHT22;26262;49.836;6.632;2022-08-20T03:44:12;18.90;99.90
39347;DHT22;26262;49.836;6.632;2022-08-20T03:46:38;18.80;99.90
39347;DHT22;26262;49.836;6.632;2022-08-20T03:49:04;18.70;99.90
39347;DHT22;26262;49.836;6.632;2022-08-20T03:51:30;18.80;99.90
39347;DHT22;26262;49.836;6.632;2022-08-20T03:53:56;18.90;99.90
39347;DHT22;26262;49.836;6.632;2022-08-20T03:56:22;18.90;99.90
39347;DHT22;26262;49.836;6.632;2022-08-20T03:58:48;18.90;99.90
39347;DHT22;26262;49.836;6.632;2022-08-20T04:01:13;18.90;99.90
39347;DHT22;26262;49.836;6.632;2022-08-20T04:03:39;18.90;99.90
39347;DHT22;26262;49.836;6.632;2022-08-20T04:06:05;18.80;99.90
39347;DHT22;26262;49.836;6.632;2022-08-20T04:08:31;18.80;99.90
39347;DHT22;26262;49.836;6.632;2022-08-20T04:10:57;18.80;99.90
39347;DHT22;26262;49.836;6.632;2022-08-20T04:13:26;18.90;99.90
39347;DHT22;26262;49.836;6.632;2022-08-20T04:15:52;18.80;99.90
39347;DHT22;26262;49.836;6.632;2022-08-20T04:18:20;18.90;99.90
39347;DHT22;26262;49.836;6.632;2022-08-20T04:20:48;18.90;99.90
39347;DHT22;26262;49.836;6.632;2022-08-20T04:23:14;18.90;99.90
39347;DHT22;26262;49.836;6.632;2022-08-20T04:25:40;18.70;99.90
39347;DHT22;26262;49.836;6.632;2022-08-20T04:28:09;18.80;99.90
39347;DHT22;26262;49.836;6.632;2022-08-20T04:30:35;18.90;99.90
39347;DHT22;26262;49.836;6.632;2022-08-20T04:33:01;18.90;99.90
39347;DHT22;26262;49.836;6.632;2022-08-20T04:35:28;19.00;99.90
39347;DHT22;26262;49.836;6.632;2022-08-20T04:38:05;18.70;99.90
39347;DHT22;26262;49.836;6.632;2022-08-20T04:40:32;18.80;99.90
39347;DHT22;26262;49.836;6.632;2022-08-20T04:43:17;18.90;99.90
39347;DHT22;26262;49.836;6.632;2022-08-20T04:45:44;18.90;99.90
39347;DHT22;26262;49.836;6.632;2022-08-20T04:48:10;18.90;99.90
39347;DHT22;26262;49.836;6.632;2022-08-20T04:50:37;18.80;99.90
39347;DHT22;26262;49.836;6.632;2022-08-20T04:53:05;19.00;99.90
39347;DHT22;26262;49.836;6.632;2022-08-20T04:55:31;19.10;99.90
39347;DHT22;26262;49.836;6.632;2022-08-20T04:58:10;19.10;99.90
39347;DHT22;26262;49.836;6.632;2022-08-20T05:00:37;18.80;99.90
39347;DHT22;26262;49.836;6.632;2022-08-20T05:03:03;18.80;99.90
39347;DHT22;26262;49.836;6.632;2022-08-20T05:05:32;18.90;99.90
39347;DHT22;26262;49.836;6.632;2022-08-20T05:08:00;18.80;99.90
39347;DHT22;26262;49.836;6.632;2022-08-20T05:10:26;18.60;99.90
39347;DHT22;26262;49.836;6.632;2022-08-20T05:12:52;18.80;99.90
39347;DHT22;26262;49.836;6.632;2022-08-20T05:15:18;18.90;99.90
39347;DHT22;26262;49.836;6.632;2022-08-20T05:17:44;19.00;99.90
39347;DHT22;26262;49.836;6.632;2022-08-20T05:20:14;19.10;99.90
39347;DHT22;26262;49.836;6.632;2022-08-20T05:22:41;19.10;99.90
39347;DHT22;26262;49.836;6.632;2022-08-20T05:25:07;19.10;99.90
39347;DHT22;26262;49.836;6.632;2022-08-20T05:27:32;19.20;99.90
39347;DHT22;26262;49.836;6.632;2022-08-20T05:30:08;19.00;99.90
39347;DHT22;26262;49.836;6.632;2022-08-20T05:32:34;19.00;99.90
39347;DHT22;26262;49.836;6.632;2022-08-20T05:35:06;19.00;99.90
39347;DHT22;26262;49.836;6.632;2022-08-20T05:37:38;18.70;99.90
39347;DHT22;26262;49.836;6.632;2022-08-20T05:40:12;18.70;99.90
39347;DHT22;26262;49.836;6.632;2022-08-20T05:42:39;18.70;99.90
39347;DHT22;26262;49.836;6.632;2022-08-20T05:45:05;18.80;99.90
39347;DHT22;26262;49.836;6.632;2022-08-20T05:47:31;19.00;99.90
39347;DHT22;26262;49.836;6.632;2022-08-20T05:49:56;19.20;99.90
39347;DHT22;26262;49.836;6.632;2022-08-20T05:52:22;19.10;99.90
39347;DHT22;26262;49.836;6.632;2022-08-20T05:54:47;19.20;99.90
39347;DHT22;26262;49.836;6.632;2022-08-20T05:57:16;19.20;99.90
39347;DHT22;26262;49.836;6.632;2022-08-20T05:59:43;19.30;99.90
39347;DHT22;26262;49.836;6.632;2022-08-20T06:02:09;19.40;99.90
39347;DHT22;26262;49.836;6.632;2022-08-20T06:04:54;19.30;99.90
39347;DHT22;26262;49.836;6.632;2022-08-20T06:07:20;19.40;99.90
39347;DHT22;26262;49.836;6.632;2022-08-20T06:09:47;19.10;99.90
39347;DHT22;26262;49.836;6.632;2022-08-20T06:12:13;19.00;99.90
39347;DHT22;26262;49.836;6.632;2022-08-20T06:14:39;18.90;99.90
39347;DHT22;26262;49.836;6.632;2022-08-20T06:17:11;18.90;99.90
39347;DHT22;26262;49.836;6.632;2022-08-20T06:19:38;18.80;99.90
39347;DHT22;26262;49.836;6.632;2022-08-20T06:22:05;18.90;99.90
39347;DHT22;26262;49.836;6.632;2022-08-20T06:24:31;18.90;99.90
39347;DHT22;26262;49.836;6.632;2022-08-20T06:26:58;19.00;99.90
39347;DHT22;26262;49.836;6.632;2022-08-20T06:29:25;19.10;99.90
39347;DHT22;26262;49.836;6.632;2022-08-20T06:31:50;19.20;99.90
39347;DHT22;26262;49.836;6.632;2022-08-20T06:34:16;19.30;99.90
39347;DHT22;26262;49.836;6.632;2022-08-20T06:36:43;19.40;99.90
39347;DHT22;26262;49.836;6.632;2022-08-20T06:39:11;19.60;99.90
39347;DHT22;26262;49.836;6.632;2022-08-20T06:41:37;19.60;99.90
39347;DHT22;26262;49.836;6.632;2022-08-20T06:44:04;19.60;99.90
39347;DHT22;26262;49.836;6.632;2022-08-20T06:46:29;19.70;99.90
39347;DHT22;26262;49.836;6.632;2022-08-20T06:48:56;19.50;99.90
39347;DHT22;26262;49.836;6.632;2022-08-20T06:51:21;19.50;99.90
39347;DHT22;26262;49.836;6.632;2022-08-20T06:53:47;19.40;99.90
39347;DHT22;26262;49.836;6.632;2022-08-20T06:56:13;19.40;99.90
39347;DHT22;26262;49.836;6.632;2022-08-20T06:58:39;19.30;99.90
39347;DHT22;26262;49.836;6.632;2022-08-20T07:01:08;19.30;99.90
39347;DHT22;26262;49.836;6.632;2022-08-20T07:03:34;19.10;99.90
39347;DHT22;26262;49.836;6.632;2022-08-20T07:06:00;19.10;99.90
39347;DHT22;26262;49.836;6.632;2022-08-20T07:08:26;19.30;99.90
39347;DHT22;26262;49.836;6.632;2022-08-20T07:10:52;19.30;99.90
39347;DHT22;26262;49.836;6.632;2022-08-20T07:13:17;19.20;99.90
39347;DHT22;26262;49.836;6.632;2022-08-20T07:15:44;19.30;99.90
39347;DHT22;26262;49.836;6.632;2022-08-20T07:18:10;19.40;99.90
39347;DHT22;26262;49.836;6.632;2022-08-20T07:20:37;19.50;99.90
39347;DHT22;26262;49.836;6.632;2022-08-20T07:23:05;19.70;99.90
39347;DHT22;26262;49.836;6.632;2022-08-20T07:25:33;19.80;99.90
39347;DHT22;26262;49.836;6.632;2022-08-20T07:28:11;19.60;99.90
39347;DHT22;26262;49.836;6.632;2022-08-20T07:30:37;19.60;99.90
39347;DHT22;26262;49.836;6.632;2022-08-20T07:33:21;19.50;99.90
39347;DHT22;26262;49.836;6.632;2022-08-20T07:35:47;19.50;99.90
39347;DHT22;26262;49.836;6.632;2022-08-20T07:38:19;19.60;99.90
39347;DHT22;26262;49.836;6.632;2022-08-20T07:40:52;19.70;99.90
39347;DHT22;26262;49.836;6.632;2022-08-20T07:43:19;19.80;99.90
39347;DHT22;26262;49.836;6.632;2022-08-20T07:45:47;19.40;99.90
39347;DHT22;26262;49.836;6.632;2022-08-20T07:48:15;19.40;99.90
39347;DHT22;26262;49.836;6.632;2022-08-20T07:50:41;19.60;99.90
39347;DHT22;26262;49.836;6.632;2022-08-20T07:53:06;19.60;99.90
39347;DHT22;26262;49.836;6.632;2022-08-20T07:55:32;19.40;99.90
39347;DHT22;26262;49.836;6.632;2022-08-20T07:58:06;19.50;99.90
39347;DHT22;26262;49.836;6.632;2022-08-20T08:00:32;19.70;99.90
39347;DHT22;26262;49.836;6.632;2022-08-20T08:02:58;19.30;99.90
39347;DHT22;26262;49.836;6.632;2022-08-20T08:05:24;19.20;99.90
39347;DHT22;26262;49.836;6.632;2022-08-20T08:07:50;19.40;99.90
39347;DHT22;26262;49.836;6.632;2022-08-20T08:10:19;19.50;99.90
39347;DHT22;26262;49.836;6.632;2022-08-20T08:12:55;19.70;99.90
39347;DHT22;26262;49.836;6.632;2022-08-20T08:15:26;19.60;99.90
39347;DHT22;26262;49.836;6.632;2022-08-20T08:17:55;19.50;99.90
39347;DHT22;26262;49.836;6.632;2022-08-20T08:20:23;19.60;99.90
39347;DHT22;26262;49.836;6.632;2022-08-20T08:22:49;19.50;99.90
39347;DHT22;26262;49.836;6.632;2022-08-20T08:25:15;19.20;99.90
39347;DHT22;26262;49.836;6.632;2022-08-20T08:27:42;19.30;99.90
39347;DHT22;26262;49.836;6.632;2022-08-20T08:30:11;19.30;99.90
39347;DHT22;26262;49.836;6.632;2022-08-20T08:32:37;19.20;99.90
39347;DHT22;26262;49.836;6.632;2022-08-20T08:35:22;19.20;99.90
39347;DHT22;26262;49.836;6.632;2022-08-20T08:37:48;19.30;99.90
39347;DHT22;26262;49.836;6.632;2022-08-20T08:40:14;19.40;99.90
39347;DHT22;26262;49.836;6.632;2022-08-20T08:42:43;19.50;99.90
39347;DHT22;26262;49.836;6.632;2022-08-20T08:45:11;19.60;99.90
39347;DHT22;26262;49.836;6.632;2022-08-20T08:47:40;19.70;99.90
39347;DHT22;26262;49.836;6.632;2022-08-20T08:50:11;19.80;99.90
39347;DHT22;26262;49.836;6.632;2022-08-20T08:52:50;19.70;99.90
39347;DHT22;26262;49.836;6.632;2022-08-20T08:55:19;20.00;99.90
39347;DHT22;26262;49.836;6.632;2022-08-20T08:57:48;19.90;99.90
39347;DHT22;26262;49.836;6.632;2022-08-20T09:00:18;19.90;99.90
39347;DHT22;26262;49.836;6.632;2022-08-20T09:03:07;20.20;99.90
39347;DHT22;26262;49.836;6.632;2022-08-20T09:05:35;20.00;99.90
39347;DHT22;26262;49.836;6.632;2022-08-20T09:08:06;20.10;99.90
39347;DHT22;26262;49.836;6.632;2022-08-20T09:10:32;20.50;99.90
39347;DHT22;26262;49.836;6.632;2022-08-20T09:12:58;20.40;99.40
39347;DHT22;26262;49.836;6.632;2022-08-20T09:15:25;20.60;99.90
39347;DHT22;26262;49.836;6.632;2022-08-20T09:17:51;20.80;99.60
39347;DHT22;26262;49.836;6.632;2022-08-20T09:20:17;21.10;99.40
39347;DHT22;26262;49.836;6.632;2022-08-20T09:22:43;21.50;98.50
39347;DHT22;26262;49.836;6.632;2022-08-20T09:25:09;21.90;98.60
39347;DHT22;26262;49.836;6.632;2022-08-20T09:27:34;22.20;99.60
39347;DHT22;26262;49.836;6.632;2022-08-20T09:30:00;22.40;97.70
39347;DHT22;26262;49.836;6.632;2022-08-20T09:32:26;22.40;97.70
39347;DHT22;26262;49.836;6.632;2022-08-20T09:34:53;22.40;97.30
39347;DHT22;26262;49.836;6.632;2022-08-20T09:37:24;22.00;97.50
39347;DHT22;26262;49.836;6.632;2022-08-20T09:39:50;22.20;98.50
39347;DHT22;26262;49.836;6.632;2022-08-20T09:42:19;22.60;97.60
39347;DHT22;26262;49.836;6.632;2022-08-20T09:44:45;22.40;97.50
39347;DHT22;26262;49.836;6.632;2022-08-20T09:47:11;22.50;98.40
39347;DHT22;26262;49.836;6.632;2022-08-20T09:49:37;23.10;97.30
39347;DHT22;26262;49.836;6.632;2022-08-20T09:52:07;23.40;96.80
39347;DHT22;26262;49.836;6.632;2022-08-20T09:54:34;23.30;96.60
39347;DHT22;26262;49.836;6.632;2022-08-20T09:57:03;23.50;96.40
39347;DHT22;26262;49.836;6.632;2022-08-20T09:59:30;23.70;96.20
39347;DHT22;26262;49.836;6.632;2022-08-20T10:01:56;23.60;95.50
39347;DHT22;26262;49.836;6.632;2022-08-20T10:04:22;23.80;95.70
39347;DHT22;26262;49.836;6.632;2022-08-20T10:06:48;23.90;96.60
39347;DHT22;26262;49.836;6.632;2022-08-20T10:09:13;24.40;95.00
39347;DHT22;26262;49.836;6.632;2022-08-20T10:11:39;24.70;95.60
39347;DHT22;26262;49.836;6.632;2022-08-20T10:14:05;25.10;93.90
39347;DHT22;26262;49.836;6.632;2022-08-20T10:16:33;24.40;93.60
39347;DHT22;26262;49.836;6.632;2022-08-20T10:18:59;24.50;94.50
39347;DHT22;26262;49.836;6.632;2022-08-20T10:21:25;24.60;94.30
39347;DHT22;26262;49.836;6.632;2022-08-20T10:23:50;24.80;93.60
39347;DHT22;26262;49.836;6.632;2022-08-20T10:26:16;25.00;94.10
39347;DHT22;26262;49.836;6.632;2022-08-20T10:28:42;25.00;93.00
39347;DHT22;26262;49.836;6.632;2022-08-20T10:31:10;24.70;93.80
39347;DHT22;26262;49.836;6.632;2022-08-20T10:33:36;25.10;93.60
39347;DHT22;26262;49.836;6.632;2022-08-20T10:36:09;25.70;92.00
39347;DHT22;26262;49.836;6.632;2022-08-20T10:38:34;26.20;92.30
39347;DHT22;26262;49.836;6.632;2022-08-20T10:41:00;26.10;91.50
39347;DHT22;26262;49.836;6.632;2022-08-20T10:43:26;26.10;91.30
39347;DHT22;26262;49.836;6.632;2022-08-20T10:45:52;26.40;91.80
39347;DHT22;26262;49.836;6.632;2022-08-20T10:48:18;26.50;91.30
39347;DHT22;26262;49.836;6.632;2022-08-20T10:50:44;25.80;91.30
39347;DHT22;26262;49.836;6.632;2022-08-20T10:53:09;26.40;91.10
39347;DHT22;26262;49.836;6.632;2022-08-20T10:55:35;25.90;91.00
39347;DHT22;26262;49.836;6.632;2022-08-20T10:58:04;26.70;90.10
39347;DHT22;26262;49.836;6.632;2022-08-20T11:00:30;27.00;89.70
39347;DHT22;26262;49.836;6.632;2022-08-20T11:02:55;27.30;89.10
39347;DHT22;26262;49.836;6.632;2022-08-20T11:05:21;27.90;86.20
39347;DHT22;26262;49.836;6.632;2022-08-20T11:07:46;28.50;86.40
39347;DHT22;26262;49.836;6.632;2022-08-20T11:10:12;28.90;85.40
39347;DHT22;26262;49.836;6.632;2022-08-20T11:12:38;28.90;84.90
39347;DHT22;26262;49.836;6.632;2022-08-20T11:15:04;28.80;83.60
39347;DHT22;26262;49.836;6.632;2022-08-20T11:17:32;28.90;83.30
39347;DHT22;26262;49.836;6.632;2022-08-20T11:19:59;29.10;84.30
39347;DHT22;26262;49.836;6.632;2022-08-20T11:22:25;28.50;80.60
39347;DHT22;26262;49.836;6.632;2022-08-20T11:24:51;27.90;83.50
39347;DHT22;26262;49.836;6.632;2022-08-20T11:27:25;28.10;84.30
39347;DHT22;26262;49.836;6.632;2022-08-20T11:29:52;28.50;83.10
39347;DHT22;26262;49.836;6.632;2022-08-20T11:32:18;28.60;81.70
39347;DHT22;26262;49.836;6.632;2022-08-20T11:34:44;28.70;80.70
39347;DHT22;26262;49.836;6.632;2022-08-20T11:37:10;28.70;80.70
39347;DHT22;26262;49.836;6.632;2022-08-20T11:39:36;27.90;81.50
39347;DHT22;26262;49.836;6.632;2022-08-20T11:42:02;28.50;79.70
39347;DHT22;26262;49.836;6.632;2022-08-20T11:44:27;28.60;79.50
39347;DHT22;26262;49.836;6.632;2022-08-20T11:46:53;28.50;79.30
39347;DHT22;26262;49.836;6.632;2022-08-20T11:49:19;28.80;79.60
39347;DHT22;26262;49.836;6.632;2022-08-20T11:51:44;29.30;78.70
39347;DHT22;26262;49.836;6.632;2022-08-20T11:54:10;29.80;76.10
39347;DHT22;26262;49.836;6.632;2022-08-20T11:56:35;29.50;75.40
39347;DHT22;26262;49.836;6.632;2022-08-20T11:59:01;30.10;76.40
39347;DHT22;26262;49.836;6.632;2022-08-20T12:01:26;30.30;75.00
39347;DHT22;26262;49.836;6.632;2022-08-20T12:03:52;30.50;74.30
39347;DHT22;26262;49.836;6.632;2022-08-20T12:06:17;29.90;73.80
39347;DHT22;26262;49.836;6.632;2022-08-20T12:08:43;30.30;74.90
39347;DHT22;26262;49.836;6.632;2022-08-20T12:11:09;30.60;74.40
39347;DHT22;26262;49.836;6.632;2022-08-20T12:13:35;30.80;74.70
39347;DHT22;26262;49.836;6.632;2022-08-20T12:16:02;31.10;73.30
39347;DHT22;26262;49.836;6.632;2022-08-20T12:18:29;31.40;72.50
39347;DHT22;26262;49.836;6.632;2022-08-20T12:20:56;30.40;71.60
39347;DHT22;26262;49.836;6.632;2022-08-20T12:23:21;28.80;72.70
39347;DHT22;26262;49.836;6.632;2022-08-20T12:25:47;28.20;74.20
39347;DHT22;26262;49.836;6.632;2022-08-20T12:28:13;28.40;75.00
39347;DHT22;26262;49.836;6.632;2022-08-20T12:30:39;28.90;75.30
39347;DHT22;26262;49.836;6.632;2022-08-20T12:33:04;29.40;74.20
39347;DHT22;26262;49.836;6.632;2022-08-20T12:35:30;30.30;73.00
39347;DHT22;26262;49.836;6.632;2022-08-20T12:37:57;30.60;70.90
39347;DHT22;26262;49.836;6.632;2022-08-20T12:40:26;31.00;71.20
39347;DHT22;26262;49.836;6.632;2022-08-20T12:42:52;30.90;68.60
39347;DHT22;26262;49.836;6.632;2022-08-20T12:45:18;30.20;71.10
39347;DHT22;26262;49.836;6.632;2022-08-20T12:47:46;29.10;72.00
39347;DHT22;26262;49.836;6.632;2022-08-20T12:50:20;28.90;70.50
39347;DHT22;26262;49.836;6.632;2022-08-20T12:52:46;28.40;71.90
39347;DHT22;26262;49.836;6.632;2022-08-20T12:55:15;28.70;70.70
39347;DHT22;26262;49.836;6.632;2022-08-20T12:57:47;29.30;71.30
39347;DHT22;26262;49.836;6.632;2022-08-20T13:00:19;29.30;71.00
39347;DHT22;26262;49.836;6.632;2022-08-20T13:02:47;29.50;69.70
39347;DHT22;26262;49.836;6.632;2022-08-20T13:05:14;30.20;68.60
39347;DHT22;26262;49.836;6.632;2022-08-20T13:07:41;28.90;67.70
39347;DHT22;26262;49.836;6.632;2022-08-20T13:10:15;29.90;69.50
39347;DHT22;26262;49.836;6.632;2022-08-20T13:12:41;30.20;67.70
39347;DHT22;26262;49.836;6.632;2022-08-20T13:15:07;30.80;67.00
39347;DHT22;26262;49.836;6.632;2022-08-20T13:17:33;30.50;67.50
39347;DHT22;26262;49.836;6.632;2022-08-20T13:19:58;30.80;67.30
39347;DHT22;26262;49.836;6.632;2022-08-20T13:22:24;31.50;65.20
39347;DHT22;26262;49.836;6.632;2022-08-20T13:24:49;31.40;65.70
39347;DHT22;26262;49.836;6.632;2022-08-20T13:27:17;31.20;65.60
39347;DHT22;26262;49.836;6.632;2022-08-20T13:29:52;31.30;63.80
39347;DHT22;26262;49.836;6.632;2022-08-20T13:32:18;31.70;64.90
39347;DHT22;26262;49.836;6.632;2022-08-20T13:34:44;31.90;65.40
39347;DHT22;26262;49.836;6.632;2022-08-20T13:37:15;32.10;63.50
39347;DHT22;26262;49.836;6.632;2022-08-20T13:39:42;31.40;62.40
39347;DHT22;26262;49.836;6.632;2022-08-20T13:42:08;31.90;62.90
39347;DHT22;26262;49.836;6.632;2022-08-20T13:44:34;31.70;62.50
39347;DHT22;26262;49.836;6.632;2022-08-20T13:46:59;31.50;63.90
39347;DHT22;26262;49.836;6.632;2022-08-20T13:49:25;32.00;63.90
39347;DHT22;26262;49.836;6.632;2022-08-20T13:51:51;31.60;61.50
39347;DHT22;26262;49.836;6.632;2022-08-20T13:54:17;30.10;61.70
39347;DHT22;26262;49.836;6.632;2022-08-20T13:56:42;29.70;64.60
39347;DHT22;26262;49.836;6.632;2022-08-20T13:59:08;30.30;63.80
39347;DHT22;26262;49.836;6.632;2022-08-20T14:01:33;30.90;62.20
39347;DHT22;26262;49.836;6.632;2022-08-20T14:03:59;31.40;61.10
39347;DHT22;26262;49.836;6.632;2022-08-20T14:06:25;31.70;60.20
39347;DHT22;26262;49.836;6.632;2022-08-20T14:08:50;31.70;60.20
39347;DHT22;26262;49.836;6.632;2022-08-20T14:11:16;31.90;62.20
39347;DHT22;26262;49.836;6.632;2022-08-20T14:13:42;32.00;60.90
39347;DHT22;26262;49.836;6.632;2022-08-20T14:16:07;32.00;61.60
39347;DHT22;26262;49.836;6.632;2022-08-20T14:18:33;32.30;60.90
39347;DHT22;26262;49.836;6.632;2022-08-20T14:20:58;32.40;59.10
39347;DHT22;26262;49.836;6.632;2022-08-20T14:23:24;31.70;61.30
39347;DHT22;26262;49.836;6.632;2022-08-20T14:25:49;31.40;62.60
39347;DHT22;26262;49.836;6.632;2022-08-20T14:28:21;31.00;61.00
39347;DHT22;26262;49.836;6.632;2022-08-20T14:30:48;30.20;60.60
39347;DHT22;26262;49.836;6.632;2022-08-20T14:33:14;30.70;62.20
39347;DHT22;26262;49.836;6.632;2022-08-20T14:35:39;29.70;59.70
39347;DHT22;26262;49.836;6.632;2022-08-20T14:38:06;29.50;60.60
39347;DHT22;26262;49.836;6.632;2022-08-20T14:40:32;30.00;63.10
39347;DHT22;26262;49.836;6.632;2022-08-20T14:42:59;30.40;60.80
39347;DHT22;26262;49.836;6.632;2022-08-20T14:45:25;30.10;60.30
39347;DHT22;26262;49.836;6.632;2022-08-20T14:47:55;30.00;61.80
39347;DHT22;26262;49.836;6.632;2022-08-20T14:50:26;30.50;61.10
39347;DHT22;26262;49.836;6.632;2022-08-20T14:52:53;30.40;61.50
39347;DHT22;26262;49.836;6.632;2022-08-20T14:55:21;30.60;59.70
39347;DHT22;26262;49.836;6.632;2022-08-20T14:57:47;30.90;60.50
39347;DHT22;26262;49.836;6.632;2022-08-20T15:00:19;30.90;60.70
39347;DHT22;26262;49.836;6.632;2022-08-20T15:02:45;31.00;59.20
39347;DHT22;26262;49.836;6.632;2022-08-20T15:05:11;31.20;59.70
39347;DHT22;26262;49.836;6.632;2022-08-20T15:07:39;31.00;60.90
39347;DHT22;26262;49.836;6.632;2022-08-20T15:10:09;30.70;61.30
39347;DHT22;26262;49.836;6.632;2022-08-20T15:12:35;29.80;59.50
39347;DHT22;26262;49.836;6.632;2022-08-20T15:15:03;29.90;59.80
39347;DHT22;26262;49.836;6.632;2022-08-20T15:17:32;30.00;61.50
39347;DHT22;26262;49.836;6.632;2022-08-20T15:20:01;29.60;62.40
39347;DHT22;26262;49.836;6.632;2022-08-20T15:22:28;29.90;59.80
39347;DHT22;26262;49.836;6.632;2022-08-20T15:24:54;29.10;59.10
39347;DHT22;26262;49.836;6.632;2022-08-20T15:27:23;28.60;62.50
39347;DHT22;26262;49.836;6.632;2022-08-20T15:29:50;28.70;61.40
39347;DHT22;26262;49.836;6.632;2022-08-20T15:32:17;28.40;62.50
39347;DHT22;26262;49.836;6.632;2022-08-20T15:34:42;28.50;61.40